sensor_id;sensor_type;location;lat;lon;timestamp;pressure;altitude;pressure_sealevel;temperature;humidity
46714;BME280;32445;51.376;10.874;2023-08-06T00:01:20;98612.13;;;20.96;49.18
46714;BME280;32445;51.376;10.874;2023-08-06T00:04:22;98603.47;;;20.94;49.08
46714;BME280;32445;51.376;10.874;2023-08-06T00:07:23;98594.88;;;20.92;49.31
46714;BME280;32445;51.376;10.874;2023-08-06T00:10:23;98595.00;;;20.90;49.29
46714;BME280;32445;51.376;10.874;2023-08-06T00:13:24;98591.66;;;20.88;49.25
46714;BME280;32445;51.376;10.874;2023-08-06T00:16:24;98588.31;;;20.86;49.17
46714;BME280;32445;51.376;10.874;2023-08-06T00:19:24;98581.34;;;20.85;49.09
46714;BME280;32445;51.376;10.874;2023-08-06T00:22:25;98577.16;;;20.83;49.34
46714;BME280;32445;51.376;10.874;2023-08-06T00:25:25;98576.47;;;20.81;49.36
46714;BME280;32445;51.376;10.874;2023-08-06T00:28:25;98567.00;;;20.78;49.51
46714;BME280;32445;51.376;10.874;2023-08-06T00:31:26;98566.31;;;20.76;49.50
46714;BME280;32445;51.376;10.874;2023-08-06T00:34:26;98565.59;;;20.74;49.47
46714;BME280;32445;51.376;10.874;2023-08-06T00:37:26;98561.25;;;20.73;49.57
46714;BME280;32445;51.376;10.874;2023-08-06T00:40:27;98557.09;;;20.70;49.66
46714;BME280;32445;51.376;10.874;2023-08-06T00:43:30;98557.34;;;20.67;49.48
46714;BME280;32445;51.376;10.874;2023-08-06T00:46:32;98558.28;;;20.66;49.71
46714;BME280;32445;51.376;10.874;2023-08-06T00:49:35;98565.59;;;20.63;49.89
46714;BME280;32445;51.376;10.874;2023-08-06T00:52:36;98556.03;;;20.62;50.11
46714;BME280;32445;51.376;10.874;2023-08-06T00:55:37;98551.84;;;20.59;49.88
46714;BME280;32445;51.376;10.874;2023-08-06T00:58:38;98542.28;;;20.58;49.91
46714;BME280;32445;51.376;10.874;2023-08-06T01:01:39;98538.91;;;20.56;50.28
46714;BME280;32445;51.376;10.874;2023-08-06T01:04:39;98545.28;;;20.53;49.98
46714;BME280;32445;51.376;10.874;2023-08-06T01:14:15;98523.16;;;20.45;50.26
46714;BME280;32445;51.376;10.874;2023-08-06T01:17:18;98524.81;;;20.46;50.06
46714;BME280;32445;51.376;10.874;2023-08-06T01:20:20;98524.13;;;20.44;50.27
46714;BME280;32445;51.376;10.874;2023-08-06T01:23:20;98517.31;;;20.41;50.03
46714;BME280;32445;51.376;10.874;2023-08-06T01:26:30;98517.44;;;20.39;50.02
46714;BME280;32445;51.376;10.874;2023-08-06T01:29:41;98514.78;;;20.39;49.44
46714;BME280;32445;51.376;10.874;2023-08-06T01:32:47;98499.13;;;20.38;49.11
46714;BME280;32445;51.376;10.874;2023-08-06T01:35:49;98505.59;;;20.34;49.56
46714;BME280;32445;51.376;10.874;2023-08-06T01:38:53;98504.03;;;20.31;50.07
46714;BME280;32445;51.376;10.874;2023-08-06T01:41:53;98492.81;;;20.29;50.22
46714;BME280;32445;51.376;10.874;2023-08-06T01:44:54;98494.72;;;20.27;50.06
46714;BME280;32445;51.376;10.874;2023-08-06T01:47:54;98488.75;;;20.25;50.08
46714;BME280;32445;51.376;10.874;2023-08-06T01:50:54;98482.75;;;20.23;50.09
46714;BME280;32445;51.376;10.874;2023-08-06T01:53:55;98485.50;;;20.21;50.10
46714;BME280;32445;51.376;10.874;2023-08-06T01:56:55;98484.00;;;20.19;50.11
46714;BME280;32445;51.376;10.874;2023-08-06T01:59:58;98495.63;;;20.16;50.36
46714;BME280;32445;51.376;10.874;2023-08-06T02:02:59;98476.44;;;20.14;50.34
46714;BME280;32445;51.376;10.874;2023-08-06T02:05:59;98478.38;;;20.12;50.52
46714;BME280;32445;51.376;10.874;2023-08-06T02:08:59;98470.59;;;20.11;51.01
46714;BME280;32445;51.376;10.874;2023-08-06T02:12:00;98475.16;;;20.09;50.45
46714;BME280;32445;51.376;10.874;2023-08-06T02:15:00;98466.53;;;20.07;50.25
46714;BME280;32445;51.376;10.874;2023-08-06T02:18:01;98462.38;;;20.04;50.32
46714;BME280;32445;51.376;10.874;2023-08-06T02:21:01;98459.03;;;20.02;50.08
46714;BME280;32445;51.376;10.874;2023-08-06T02:24:02;98466.22;;;20.00;50.08
46714;BME280;32445;51.376;10.874;2023-08-06T02:27:02;98461.06;;;19.98;50.47
46714;BME280;32445;51.376;10.874;2023-08-06T02:30:04;98456.31;;;19.92;50.45
46714;BME280;32445;51.376;10.874;2023-08-06T02:33:05;98459.44;;;19.86;50.71
46714;BME280;32445;51.376;10.874;2023-08-06T02:36:05;98458.03;;;19.82;50.51
46714;BME280;32445;51.376;10.874;2023-08-06T02:39:05;98453.72;;;19.81;50.62
46714;BME280;32445;51.376;10.874;2023-08-06T02:42:07;98445.13;;;19.79;50.99
46714;BME280;32445;51.376;10.874;2023-08-06T02:45:07;98445.44;;;19.74;50.56
46714;BME280;32445;51.376;10.874;2023-08-06T02:48:08;98439.72;;;19.69;50.22
46714;BME280;32445;51.376;10.874;2023-08-06T02:51:08;98433.72;;;19.67;50.71
46714;BME280;32445;51.376;10.874;2023-08-06T02:54:09;98427.75;;;19.65;50.89
46714;BME280;32445;51.376;10.874;2023-08-06T02:57:09;98421.66;;;19.64;50.85
46714;BME280;32445;51.376;10.874;2023-08-06T03:00:10;98424.41;;;19.63;50.99
46714;BME280;32445;51.376;10.874;2023-08-06T03:03:11;98425.38;;;19.62;51.21
46714;BME280;32445;51.376;10.874;2023-08-06T03:06:12;98424.66;;;19.60;51.40
46714;BME280;32445;51.376;10.874;2023-08-06T03:09:12;98426.47;;;19.59;51.32
46714;BME280;32445;51.376;10.874;2023-08-06T03:12:12;98425.72;;;19.57;51.29
46714;BME280;32445;51.376;10.874;2023-08-06T03:15:13;98432.94;;;19.55;51.02
46714;BME280;32445;51.376;10.874;2023-08-06T03:18:13;98422.53;;;19.53;51.17
46714;BME280;32445;51.376;10.874;2023-08-06T03:21:14;98423.47;;;19.52;51.34
46714;BME280;32445;51.376;10.874;2023-08-06T03:24:14;98409.50;;;19.52;51.61
46714;BME280;32445;51.376;10.874;2023-08-06T03:27:14;98411.31;;;19.51;51.25
46714;BME280;32445;51.376;10.874;2023-08-06T03:30:15;98407.94;;;19.49;51.67
46714;BME280;32445;51.376;10.874;2023-08-06T03:33:15;98416.78;;;19.48;51.59
46714;BME280;32445;51.376;10.874;2023-08-06T03:36:16;98410.69;;;19.48;51.73
46714;BME280;32445;51.376;10.874;2023-08-06T03:39:16;98416.09;;;19.46;51.09
46714;BME280;32445;51.376;10.874;2023-08-06T03:42:16;98418.72;;;19.46;51.51
46714;BME280;32445;51.376;10.874;2023-08-06T03:45:17;98419.66;;;19.45;51.42
46714;BME280;32445;51.376;10.874;2023-08-06T03:48:17;98417.03;;;19.45;51.63
46714;BME280;32445;51.376;10.874;2023-08-06T03:51:18;98416.22;;;19.45;51.71
46714;BME280;32445;51.376;10.874;2023-08-06T03:54:18;98416.09;;;19.46;51.73
46714;BME280;32445;51.376;10.874;2023-08-06T03:57:18;98410.94;;;19.45;51.82
46714;BME280;32445;51.376;10.874;2023-08-06T04:00:19;98409.25;;;19.44;51.85
46714;BME280;32445;51.376;10.874;2023-08-06T04:03:19;98411.06;;;19.43;52.04
46714;BME280;32445;51.376;10.874;2023-08-06T04:06:19;98405.81;;;19.43;51.94
46714;BME280;32445;51.376;10.874;2023-08-06T04:09:20;98399.69;;;19.43;52.32
46714;BME280;32445;51.376;10.874;2023-08-06T04:12:20;98411.06;;;19.43;52.20
46714;BME280;32445;51.376;10.874;2023-08-06T04:15:21;98412.97;;;19.41;52.10
46714;BME280;32445;51.376;10.874;2023-08-06T04:18:21;98417.41;;;19.41;52.24
46714;BME280;32445;51.376;10.874;2023-08-06T04:21:21;98415.59;;;19.41;52.01
46714;BME280;32445;51.376;10.874;2023-08-06T04:24:22;98413.94;;;19.40;52.33
46714;BME280;32445;51.376;10.874;2023-08-06T04:27:22;98412.28;;;19.39;52.09
46714;BME280;32445;51.376;10.874;2023-08-06T04:30:22;98402.69;;;19.38;52.32
46714;BME280;32445;51.376;10.874;2023-08-06T04:33:23;98397.44;;;19.38;52.41
46714;BME280;32445;51.376;10.874;2023-08-06T04:36:23;98394.94;;;19.36;52.36
46714;BME280;32445;51.376;10.874;2023-08-06T04:39:24;98389.66;;;19.36;52.17
46714;BME280;32445;51.376;10.874;2023-08-06T04:42:24;98382.72;;;19.35;52.31
46714;BME280;32445;51.376;10.874;2023-08-06T04:45:24;98391.47;;;19.36;52.24
46714;BME280;32445;51.376;10.874;2023-08-06T04:48:25;98389.78;;;19.35;52.45
46714;BME280;32445;51.376;10.874;2023-08-06T04:51:25;98383.69;;;19.34;52.66
46714;BME280;32445;51.376;10.874;2023-08-06T04:54:25;98389.91;;;19.33;52.59
46714;BME280;32445;51.376;10.874;2023-08-06T04:57:26;98390.75;;;19.34;52.74
46714;BME280;32445;51.376;10.874;2023-08-06T05:00:26;98387.28;;;19.33;52.58
46714;BME280;32445;51.376;10.874;2023-08-06T05:03:26;98380.22;;;19.34;52.41
46714;BME280;32445;51.376;10.874;2023-08-06T05:06:27;98378.44;;;19.34;52.67
46714;BME280;32445;51.376;10.874;2023-08-06T05:09:27;98382.84;;;19.34;52.54
46714;BME280;32445;51.376;10.874;2023-08-06T05:12:28;98379.41;;;19.33;52.45
46714;BME280;32445;51.376;10.874;2023-08-06T05:15:28;98372.31;;;19.34;52.46
46714;BME280;32445;51.376;10.874;2023-08-06T05:18:29;98367.06;;;19.34;52.21
46714;BME280;32445;51.376;10.874;2023-08-06T05:21:30;98364.31;;;19.35;52.51
46714;BME280;32445;51.376;10.874;2023-08-06T05:24:31;98364.31;;;19.35;52.45
46714;BME280;32445;51.376;10.874;2023-08-06T05:27:31;98356.28;;;19.37;52.81
46714;BME280;32445;51.376;10.874;2023-08-06T05:30:32;98357.13;;;19.38;52.65
46714;BME280;32445;51.376;10.874;2023-08-06T05:33:32;98360.47;;;19.40;52.88
46714;BME280;32445;51.376;10.874;2023-08-06T05:36:32;98362.97;;;19.41;52.92
46714;BME280;32445;51.376;10.874;2023-08-06T05:39:33;98362.84;;;19.43;53.07
46714;BME280;32445;51.376;10.874;2023-08-06T05:42:33;98365.38;;;19.44;53.05
46714;BME280;32445;51.376;10.874;2023-08-06T05:45:33;98361.78;;;19.45;53.03
46714;BME280;32445;51.376;10.874;2023-08-06T05:48:34;98359.00;;;19.47;52.92
46714;BME280;32445;51.376;10.874;2023-08-06T05:51:34;98360.69;;;19.48;52.98
46714;BME280;32445;51.376;10.874;2023-08-06T05:54:34;98353.50;;;19.50;53.13
46714;BME280;32445;51.376;10.874;2023-08-06T05:57:35;98356.03;;;19.51;53.28
46714;BME280;32445;51.376;10.874;2023-08-06T06:00:35;98360.19;;;19.54;53.07
46714;BME280;32445;51.376;10.874;2023-08-06T06:03:36;98359.09;;;19.57;53.33
46714;BME280;32445;51.376;10.874;2023-08-06T06:06:36;98351.81;;;19.60;53.25
46714;BME280;32445;51.376;10.874;2023-08-06T06:09:36;98348.06;;;19.63;53.24
46714;BME280;32445;51.376;10.874;2023-08-06T06:12:38;98345.34;;;19.64;53.35
46714;BME280;32445;51.376;10.874;2023-08-06T06:15:38;98351.16;;;19.68;53.24
46714;BME280;32445;51.376;10.874;2023-08-06T06:18:39;98351.88;;;19.70;53.40
46714;BME280;32445;51.376;10.874;2023-08-06T06:21:39;98341.94;;;19.74;53.64
46714;BME280;32445;51.376;10.874;2023-08-06T06:24:40;98346.94;;;19.77;53.35
46714;BME280;32445;51.376;10.874;2023-08-06T06:27:40;98348.53;;;19.79;53.58
46714;BME280;32445;51.376;10.874;2023-08-06T06:30:41;98352.97;;;19.79;54.11
46714;BME280;32445;51.376;10.874;2023-08-06T06:33:42;98340.50;;;19.81;54.12
46714;BME280;32445;51.376;10.874;2023-08-06T06:36:42;98346.34;;;19.84;53.44
46714;BME280;32445;51.376;10.874;2023-08-06T06:39:43;98344.16;;;19.90;52.93
46714;BME280;32445;51.376;10.874;2023-08-06T06:42:44;98338.50;;;19.94;53.21
46714;BME280;32445;51.376;10.874;2023-08-06T06:45:44;98342.41;;;20.00;53.13
46714;BME280;32445;51.376;10.874;2023-08-06T06:48:45;98340.63;;;20.00;53.05
46714;BME280;32445;51.376;10.874;2023-08-06T06:51:45;98337.59;;;20.05;52.92
46714;BME280;32445;51.376;10.874;2023-08-06T06:54:46;98334.31;;;20.13;52.94
46714;BME280;32445;51.376;10.874;2023-08-06T06:57:46;98333.09;;;20.17;52.81
46714;BME280;32445;51.376;10.874;2023-08-06T07:00:47;98329.09;;;20.22;52.72
46714;BME280;32445;51.376;10.874;2023-08-06T07:03:48;98332.06;;;20.29;52.76
46714;BME280;32445;51.376;10.874;2023-08-06T07:06:48;98334.56;;;20.31;51.77
46714;BME280;32445;51.376;10.874;2023-08-06T07:09:48;98332.19;;;20.28;52.06
46714;BME280;32445;51.376;10.874;2023-08-06T07:12:49;98327.63;;;20.30;52.08
46714;BME280;32445;51.376;10.874;2023-08-06T07:15:49;98333.63;;;20.32;52.00
46714;BME280;32445;51.376;10.874;2023-08-06T07:18:51;98335.72;;;20.38;51.92
46714;BME280;32445;51.376;10.874;2023-08-06T07:21:52;98329.22;;;20.42;51.77
46714;BME280;32445;51.376;10.874;2023-08-06T07:24:53;98332.16;;;20.49;51.90
46714;BME280;32445;51.376;10.874;2023-08-06T07:27:53;98330.78;;;20.54;51.06
46714;BME280;32445;51.376;10.874;2023-08-06T07:30:53;98320.56;;;20.61;51.57
46714;BME280;32445;51.376;10.874;2023-08-06T07:33:54;98316.69;;;20.65;51.54
46714;BME280;32445;51.376;10.874;2023-08-06T07:36:54;98321.31;;;20.73;51.20
46714;BME280;32445;51.376;10.874;2023-08-06T07:39:56;98312.75;;;20.81;51.28
46714;BME280;32445;51.376;10.874;2023-08-06T07:42:56;98316.78;;;20.85;51.44
46714;BME280;32445;51.376;10.874;2023-08-06T07:46:00;98323.56;;;20.87;51.50
46714;BME280;32445;51.376;10.874;2023-08-06T07:49:00;98312.78;;;20.90;51.14
46714;BME280;32445;51.376;10.874;2023-08-06T07:52:01;98317.50;;;20.97;51.15
46714;BME280;32445;51.376;10.874;2023-08-06T07:55:02;98318.78;;;21.02;51.38
46714;BME280;32445;51.376;10.874;2023-08-06T07:58:04;98319.19;;;21.07;51.18
46714;BME280;32445;51.376;10.874;2023-08-06T08:01:06;98309.06;;;21.13;51.45
46714;BME280;32445;51.376;10.874;2023-08-06T08:04:06;98307.69;;;21.18;51.48
46714;BME280;32445;51.376;10.874;2023-08-06T08:07:07;98303.94;;;21.21;51.65
46714;BME280;32445;51.376;10.874;2023-08-06T08:10:07;98306.97;;;21.26;51.88
46714;BME280;32445;51.376;10.874;2023-08-06T08:13:08;98299.38;;;21.33;51.29
46714;BME280;32445;51.376;10.874;2023-08-06T08:16:08;98298.53;;;21.42;51.42
46714;BME280;32445;51.376;10.874;2023-08-06T08:19:08;98295.91;;;21.52;51.16
46714;BME280;32445;51.376;10.874;2023-08-06T08:22:09;98291.59;;;21.60;50.92
46714;BME280;32445;51.376;10.874;2023-08-06T08:25:09;98291.75;;;21.69;50.68
46714;BME280;32445;51.376;10.874;2023-08-06T08:28:10;98289.38;;;21.75;50.67
46714;BME280;32445;51.376;10.874;2023-08-06T08:31:11;98278.94;;;21.84;50.45
46714;BME280;32445;51.376;10.874;2023-08-06T08:34:11;98289.47;;;21.93;50.20
46714;BME280;32445;51.376;10.874;2023-08-06T08:37:13;98280.69;;;22.03;49.65
46714;BME280;32445;51.376;10.874;2023-08-06T08:40:13;98274.69;;;22.10;49.71
46714;BME280;32445;51.376;10.874;2023-08-06T08:43:15;98274.13;;;22.17;49.30
46714;BME280;32445;51.376;10.874;2023-08-06T08:46:15;98265.63;;;22.23;49.72
46714;BME280;32445;51.376;10.874;2023-08-06T08:49:18;98262.09;;;22.32;50.39
46714;BME280;32445;51.376;10.874;2023-08-06T08:52:20;98267.38;;;22.42;50.24
46714;BME280;32445;51.376;10.874;2023-08-06T08:55:21;98259.69;;;22.49;50.14
46714;BME280;32445;51.376;10.874;2023-08-06T08:58:22;98257.69;;;22.60;49.50
46714;BME280;32445;51.376;10.874;2023-08-06T09:01:24;98257.19;;;22.75;49.47
46714;BME280;32445;51.376;10.874;2023-08-06T09:04:26;98254.88;;;22.90;48.99
46714;BME280;32445;51.376;10.874;2023-08-06T09:07:29;98253.81;;;23.01;48.07
46714;BME280;32445;51.376;10.874;2023-08-06T09:10:32;98257.25;;;23.11;48.19
46714;BME280;32445;51.376;10.874;2023-08-06T09:13:33;98259.16;;;23.19;48.10
46714;BME280;32445;51.376;10.874;2023-08-06T09:16:37;98258.72;;;23.23;47.81
46714;BME280;32445;51.376;10.874;2023-08-06T09:19:37;98254.53;;;23.21;48.70
46714;BME280;32445;51.376;10.874;2023-08-06T09:22:38;98254.38;;;23.22;48.75
46714;BME280;32445;51.376;10.874;2023-08-06T09:25:39;98259.69;;;23.22;49.07
46714;BME280;32445;51.376;10.874;2023-08-06T09:28:40;98255.75;;;23.26;48.54
46714;BME280;32445;51.376;10.874;2023-08-06T09:31:44;98260.44;;;23.32;48.59
46714;BME280;32445;51.376;10.874;2023-08-06T09:34:45;98257.03;;;23.40;48.62
46714;BME280;32445;51.376;10.874;2023-08-06T09:37:46;98260.44;;;23.50;48.44
46714;BME280;32445;51.376;10.874;2023-08-06T09:40:46;98249.59;;;23.62;48.11
46714;BME280;32445;51.376;10.874;2023-08-06T09:43:47;98244.88;;;23.74;48.11
46714;BME280;32445;51.376;10.874;2023-08-06T09:46:58;98246.91;;;23.80;47.57
46714;BME280;32445;51.376;10.874;2023-08-06T09:49:58;98255.94;;;23.87;47.55
46714;BME280;32445;51.376;10.874;2023-08-06T09:53:00;98243.56;;;23.96;47.24
46714;BME280;32445;51.376;10.874;2023-08-06T09:56:00;98241.25;;;24.01;46.62
46714;BME280;32445;51.376;10.874;2023-08-06T09:59:01;98239.66;;;24.08;46.35
46714;BME280;32445;51.376;10.874;2023-08-06T10:02:02;98235.03;;;24.10;46.08
46714;BME280;32445;51.376;10.874;2023-08-06T10:05:04;98236.22;;;24.16;46.89
46714;BME280;32445;51.376;10.874;2023-08-06T10:08:04;98227.41;;;24.15;46.83
46714;BME280;32445;51.376;10.874;2023-08-06T10:11:06;98215.03;;;24.24;46.55
46714;BME280;32445;51.376;10.874;2023-08-06T10:14:10;98216.94;;;24.40;46.91
46714;BME280;32445;51.376;10.874;2023-08-06T10:17:11;98210.69;;;24.58;46.29
46714;BME280;32445;51.376;10.874;2023-08-06T10:20:12;98197.00;;;24.70;46.24
46714;BME280;32445;51.376;10.874;2023-08-06T10:23:13;98203.16;;;24.96;45.04
46714;BME280;32445;51.376;10.874;2023-08-06T10:26:16;98207.34;;;25.15;44.34
46714;BME280;32445;51.376;10.874;2023-08-06T10:29:35;98203.03;;;25.22;43.56
46714;BME280;32445;51.376;10.874;2023-08-06T10:32:47;98197.09;;;25.36;43.03
46714;BME280;32445;51.376;10.874;2023-08-06T10:35:50;98192.44;;;25.38;43.05
46714;BME280;32445;51.376;10.874;2023-08-06T10:38:50;98187.94;;;25.31;43.20
46714;BME280;32445;51.376;10.874;2023-08-06T10:41:51;98177.66;;;25.36;43.80
46714;BME280;32445;51.376;10.874;2023-08-06T10:48:33;98175.91;;;25.84;43.58
46714;BME280;32445;51.376;10.874;2023-08-06T10:51:34;98167.03;;;26.17;42.57
46714;BME280;32445;51.376;10.874;2023-08-06T10:54:35;98168.56;;;26.42;42.96
46714;BME280;32445;51.376;10.874;2023-08-06T10:57:36;98161.16;;;26.61;42.27
46714;BME280;32445;51.376;10.874;2023-08-06T11:00:36;98159.63;;;26.67;41.21
46714;BME280;32445;51.376;10.874;2023-08-06T11:03:38;98150.50;;;26.61;40.66
46714;BME280;32445;51.376;10.874;2023-08-06T11:06:38;98143.69;;;26.58;40.61
46714;BME280;32445;51.376;10.874;2023-08-06T11:09:39;98146.00;;;26.62;40.39
46714;BME280;32445;51.376;10.874;2023-08-06T11:12:39;98139.69;;;26.63;39.74
46714;BME280;32445;51.376;10.874;2023-08-06T11:15:40;98142.16;;;26.64;39.81
46714;BME280;32445;51.376;10.874;2023-08-06T11:18:40;98143.31;;;26.70;39.37
46714;BME280;32445;51.376;10.874;2023-08-06T11:21:43;98136.56;;;26.82;40.34
46714;BME280;32445;51.376;10.874;2023-08-06T11:24:44;98128.84;;;27.10;39.85
46714;BME280;32445;51.376;10.874;2023-08-06T11:27:44;98123.44;;;27.42;39.63
46714;BME280;32445;51.376;10.874;2023-08-06T11:30:45;98115.75;;;27.77;39.05
46714;BME280;32445;51.376;10.874;2023-08-06T11:33:45;98108.28;;;28.17;38.67
46714;BME280;32445;51.376;10.874;2023-08-06T11:36:45;98108.25;;;28.54;37.94
46714;BME280;32445;51.376;10.874;2023-08-06T11:39:47;98107.66;;;28.73;37.16
46714;BME280;32445;51.376;10.874;2023-08-06T11:42:50;98113.13;;;28.87;37.18
46714;BME280;32445;51.376;10.874;2023-08-06T11:45:51;98113.28;;;29.07;36.47
46714;BME280;32445;51.376;10.874;2023-08-06T11:48:55;98102.78;;;29.27;35.10
46714;BME280;32445;51.376;10.874;2023-08-06T11:51:55;98102.09;;;29.46;34.64
46714;BME280;32445;51.376;10.874;2023-08-06T11:55:09;98097.47;;;29.68;34.03
46714;BME280;32445;51.376;10.874;2023-08-06T11:58:16;98094.94;;;29.89;34.01
46714;BME280;32445;51.376;10.874;2023-08-06T12:01:18;98096.00;;;29.94;33.78
46714;BME280;32445;51.376;10.874;2023-08-06T12:04:18;98092.28;;;29.95;34.12
46714;BME280;32445;51.376;10.874;2023-08-06T12:07:18;98094.78;;;29.97;33.30
46714;BME280;32445;51.376;10.874;2023-08-06T12:10:19;98097.03;;;29.93;35.13
46714;BME280;32445;51.376;10.874;2023-08-06T12:13:20;98081.97;;;29.85;34.41
46714;BME280;32445;51.376;10.874;2023-08-06T12:16:21;98088.09;;;29.79;35.50
46714;BME280;32445;51.376;10.874;2023-08-06T12:19:22;98088.03;;;29.73;34.92
46714;BME280;32445;51.376;10.874;2023-08-06T12:22:23;98086.38;;;29.65;33.31
46714;BME280;32445;51.376;10.874;2023-08-06T12:25:23;98091.88;;;29.57;33.89
46714;BME280;32445;51.376;10.874;2023-08-06T12:28:24;98097.16;;;29.50;35.46
46714;BME280;32445;51.376;10.874;2023-08-06T12:31:24;98093.41;;;29.38;36.19
46714;BME280;32445;51.376;10.874;2023-08-06T12:38:02;98082.69;;;29.09;37.10
46714;BME280;32445;51.376;10.874;2023-08-06T12:41:03;98080.13;;;28.94;36.69
46714;BME280;32445;51.376;10.874;2023-08-06T12:44:03;98075.31;;;28.83;36.80
46714;BME280;32445;51.376;10.874;2023-08-06T12:47:03;98071.28;;;28.72;37.80
46714;BME280;32445;51.376;10.874;2023-08-06T12:50:04;98067.81;;;28.72;37.57
46714;BME280;32445;51.376;10.874;2023-08-06T12:53:05;98069.13;;;28.82;38.12
46714;BME280;32445;51.376;10.874;2023-08-06T12:56:05;98062.84;;;28.97;37.47
46714;BME280;32445;51.376;10.874;2023-08-06T12:59:05;98067.47;;;29.10;37.55
46714;BME280;32445;51.376;10.874;2023-08-06T13:02:06;98079.69;;;29.19;35.76
46714;BME280;32445;51.376;10.874;2023-08-06T13:05:06;98076.16;;;29.18;37.05
46714;BME280;32445;51.376;10.874;2023-08-06T13:08:07;98071.81;;;29.11;36.25
46714;BME280;32445;51.376;10.874;2023-08-06T13:11:07;98078.53;;;29.00;37.26
46714;BME280;32445;51.376;10.874;2023-08-06T13:14:09;98068.38;;;28.89;37.17
46714;BME280;32445;51.376;10.874;2023-08-06T13:17:10;98072.56;;;28.76;36.61
46714;BME280;32445;51.376;10.874;2023-08-06T13:20:10;98075.75;;;28.65;37.08
46714;BME280;32445;51.376;10.874;2023-08-06T13:23:10;98087.84;;;28.46;37.62
46714;BME280;32445;51.376;10.874;2023-08-06T13:26:11;98091.03;;;28.20;37.40
46714;BME280;32445;51.376;10.874;2023-08-06T13:29:11;98090.00;;;27.99;37.48
46714;BME280;32445;51.376;10.874;2023-08-06T13:32:11;98088.34;;;27.83;38.20
46714;BME280;32445;51.376;10.874;2023-08-06T13:35:12;98095.50;;;27.68;38.17
46714;BME280;32445;51.376;10.874;2023-08-06T13:38:12;98100.00;;;27.52;38.42
46714;BME280;32445;51.376;10.874;2023-08-06T13:41:13;98109.34;;;27.33;38.59
46714;BME280;32445;51.376;10.874;2023-08-06T13:44:13;98102.97;;;27.19;38.26
46714;BME280;32445;51.376;10.874;2023-08-06T13:47:14;98110.94;;;27.04;38.68
46714;BME280;32445;51.376;10.874;2023-08-06T13:50:15;98115.22;;;26.90;38.73
46714;BME280;32445;51.376;10.874;2023-08-06T13:53:15;98118.66;;;26.76;39.09
46714;BME280;32445;51.376;10.874;2023-08-06T13:56:16;98115.56;;;26.64;39.41
46714;BME280;32445;51.376;10.874;2023-08-06T13:59:17;98115.16;;;26.52;40.05
46714;BME280;32445;51.376;10.874;2023-08-06T14:02:19;98112.53;;;26.44;40.46
46714;BME280;32445;51.376;10.874;2023-08-06T14:05:20;98110.75;;;26.36;41.09
46714;BME280;32445;51.376;10.874;2023-08-06T14:08:20;98103.47;;;26.30;41.61
46714;BME280;32445;51.376;10.874;2023-08-06T14:11:21;98101.16;;;26.27;42.50
46714;BME280;32445;51.376;10.874;2023-08-06T14:14:21;98097.69;;;26.27;41.41
46714;BME280;32445;51.376;10.874;2023-08-06T14:17:26;98094.84;;;26.28;41.77
46714;BME280;32445;51.376;10.874;2023-08-06T14:20:26;98094.47;;;26.31;41.17
46714;BME280;32445;51.376;10.874;2023-08-06T14:23:26;98092.47;;;26.33;41.60
46714;BME280;32445;51.376;10.874;2023-08-06T14:26:27;98094.25;;;26.41;42.22
46714;BME280;32445;51.376;10.874;2023-08-06T14:29:27;98095.56;;;26.45;42.62
46714;BME280;32445;51.376;10.874;2023-08-06T14:32:27;98096.53;;;26.52;42.40
46714;BME280;32445;51.376;10.874;2023-08-06T14:35:28;98102.72;;;26.68;43.01
46714;BME280;32445;51.376;10.874;2023-08-06T14:38:28;98111.56;;;26.91;43.34
46714;BME280;32445;51.376;10.874;2023-08-06T14:41:29;98098.50;;;27.20;42.41
46714;BME280;32445;51.376;10.874;2023-08-06T14:44:29;98105.53;;;27.51;41.10
46714;BME280;32445;51.376;10.874;2023-08-06T14:47:30;98110.75;;;27.74;41.50
46714;BME280;32445;51.376;10.874;2023-08-06T14:50:30;98101.81;;;27.96;40.14
46714;BME280;32445;51.376;10.874;2023-08-06T14:53:30;98108.19;;;28.10;39.23
46714;BME280;32445;51.376;10.874;2023-08-06T14:56:31;98115.06;;;28.20;39.23
46714;BME280;32445;51.376;10.874;2023-08-06T14:59:31;98104.84;;;28.23;39.35
46714;BME280;32445;51.376;10.874;2023-08-06T15:02:32;98105.44;;;28.19;38.60
46714;BME280;32445;51.376;10.874;2023-08-06T15:05:33;98119.06;;;28.09;38.43
46714;BME280;32445;51.376;10.874;2023-08-06T15:08:33;98125.00;;;27.96;38.23
46714;BME280;32445;51.376;10.874;2023-08-06T15:11:34;98123.19;;;27.82;38.54
46714;BME280;32445;51.376;10.874;2023-08-06T15:14:34;98139.81;;;27.69;39.10
46714;BME280;32445;51.376;10.874;2023-08-06T15:17:34;98145.78;;;27.56;39.14
46714;BME280;32445;51.376;10.874;2023-08-06T15:20:35;98140.44;;;27.41;38.63
46714;BME280;32445;51.376;10.874;2023-08-06T15:23:36;98141.88;;;27.28;38.37
46714;BME280;32445;51.376;10.874;2023-08-06T15:26:37;98156.59;;;27.16;38.94
46714;BME280;32445;51.376;10.874;2023-08-06T15:29:37;98162.53;;;27.03;39.02
46714;BME280;32445;51.376;10.874;2023-08-06T15:32:37;98162.78;;;26.93;39.30
46714;BME280;32445;51.376;10.874;2023-08-06T15:35:39;98156.69;;;26.85;39.17
46714;BME280;32445;51.376;10.874;2023-08-06T15:38:39;98158.22;;;26.79;38.88
46714;BME280;32445;51.376;10.874;2023-08-06T15:41:39;98157.94;;;26.74;39.20
46714;BME280;32445;51.376;10.874;2023-08-06T15:44:40;98161.13;;;26.69;39.53
46714;BME280;32445;51.376;10.874;2023-08-06T15:47:40;98158.78;;;26.66;39.57
46714;BME280;32445;51.376;10.874;2023-08-06T15:50:41;98157.47;;;26.62;39.92
46714;BME280;32445;51.376;10.874;2023-08-06T15:53:41;98161.34;;;26.59;40.16
46714;BME280;32445;51.376;10.874;2023-08-06T15:56:42;98159.03;;;26.56;40.44
46714;BME280;32445;51.376;10.874;2023-08-06T15:59:42;98170.66;;;26.55;40.41